Time;durP1;ratioP1;P1;durP2;ratioP2;P2;SDS_P1;SDS_P2;PMS_P1;PMS_P2;Temp;Humidity;BMP_temperature;BMP_pressure;BME280_temperature;BME280_humidity;BME280_pressure;Samples;Min_cycle;Max_cycle;Signal;HPM_P1;HPM_P2
2023/10/01 00:01:36;;;;;;;9.63;2.42;;;;;;;-146.27;64.91;81671.13;5025414;28;20087;-66
2023/10/01 00:04:04;;;;;;;16.65;2.95;;;;;;;-146.27;65.23;81667.09;5028258;28;20087;-66
2023/10/01 00:06:30;;;;;;;8.60;2.25;;;;;;;-146.27;64.82;81709.28;5022178;28;20121;-67
2023/10/01 00:08:57;;;;;;;11.10;2.55;;;;;;;-146.27;63.93;81673.13;5018685;28;20041;-67
2023/10/01 00:11:23;;;;;;;10.48;2.90;;;;;;;-146.27;64.15;81685.19;5017199;28;20018;-69
2023/10/01 00:13:48;;;;;;;11.43;2.50;;;;;;;-146.27;63.87;81649.03;5016213;28;20041;-66
2023/10/01 00:16:14;;;;;;;10.32;3.25;;;;;;;-146.27;63.61;81661.09;5028965;28;20033;-66
2023/10/01 00:18:39;;;;;;;8.05;2.03;;;;;;;-146.27;63.57;81695.22;5016837;28;20026;-69
2023/10/01 00:21:05;;;;;;;7.45;2.58;;;;;;;-146.27;63.41;81729.38;5015764;28;20251;-67
2023/10/01 00:23:30;;;;;;;10.15;3.13;;;;;;;-146.27;63.53;81649.03;5017839;28;20026;-67
2023/10/01 00:25:57;;;;;;;11.10;2.35;;;;;;;-146.27;63.37;81641.00;5025024;28;20033;-67
2023/10/01 00:28:22;;;;;;;10.30;2.45;;;;;;;-146.27;63.52;81663.09;5030084;28;20504;-67
2023/10/01 00:30:48;;;;;;;9.55;2.78;;;;;;;-146.27;63.34;81632.97;5019895;28;20458;-66
2023/10/01 00:33:15;;;;;;;11.23;2.63;;;;;;;-146.27;63.85;81673.13;5020559;28;20025;-66
2023/10/01 00:35:41;;;;;;;13.13;2.20;;;;;;;-146.27;64.01;81703.25;5019418;28;20432;-67
2023/10/01 00:38:07;;;;;;;8.25;2.80;;;;;;;-146.27;64.87;81745.44;5018068;28;20032;-66
2023/10/01 00:40:33;;;;;;;10.50;3.13;;;;;;;-146.27;64.53;81809.72;5017850;28;20033;-66
2023/10/01 00:42:58;;;;;;;11.23;2.83;;;;;;;-146.27;64.84;81723.34;5012915;28;20437;-66
2023/10/01 00:45:24;;;;;;;9.27;2.90;;;;;;;-146.27;64.75;81693.22;5025963;28;20026;-69
2023/10/01 00:47:51;;;;;;;8.38;2.70;;;;;;;-146.27;64.51;81683.19;5028399;28;20388;-69
2023/10/01 00:50:21;;;;;;;8.32;2.97;;;;;;;-146.27;64.61;81721.34;5021387;28;20026;-69
2023/10/01 00:52:49;;;;;;;10.07;2.55;;;;;;;-146.27;64.79;81705.28;5019322;28;20045;-68
2023/10/01 00:55:16;;;;;;;10.57;3.00;;;;;;;-146.27;65.09;81735.41;5026129;28;20104;-69
2023/10/01 00:57:42;;;;;;;11.38;3.10;;;;;;;-146.27;65.47;81753.47;5014924;28;20026;-69
2023/10/01 01:00:09;;;;;;;8.50;2.50;;;;;;;-146.27;65.45;81713.31;5016585;28;20037;-70
2023/10/01 01:02:38;;;;;;;9.52;2.97;;;;;;;-146.27;65.31;81715.31;5006942;28;20108;-71
2023/10/01 01:05:20;;;;;;;13.98;2.95;;;;;;;-146.27;65.57;81737.41;5029882;28;20029;-72
2023/10/01 01:07:48;;;;;;;13.15;3.20;;;;;;;-146.27;66.06;81751.47;5022528;28;20112;-71
2023/10/01 01:10:18;;;;;;;11.48;3.05;;;;;;;-146.27;66.33;81733.38;5023922;28;20393;-71
2023/10/01 01:12:53;;;;;;;9.80;2.97;;;;;;;-146.27;66.53;81729.38;5013927;28;20030;-71
2023/10/01 01:15:21;;;;;;;16.13;3.88;;;;;;;-146.27;66.87;81761.50;5018411;28;20171;-71
2023/10/01 01:17:48;;;;;;;8.90;2.75;;;;;;;-146.27;67.20;81819.75;5026049;28;20729;-71
2023/10/01 01:20:13;;;;;;;10.80;3.35;;;;;;;-146.27;67.55;81787.63;5024387;28;20025;-73
2023/10/01 01:22:48;;;;;;;9.45;3.05;;;;;;;-146.27;67.54;81799.66;5029046;28;20071;-71
2023/10/01 01:25:20;;;;;;;8.00;2.80;;;;;;;-146.27;67.58;81801.69;5023325;28;20025;-71
2023/10/01 01:27:46;;;;;;;7.97;2.75;;;;;;;-146.27;67.83;81793.66;5015624;28;20036;-72
2023/10/01 01:30:17;;;;;;;11.07;3.03;;;;;;;-146.27;68.08;81813.72;5021033;28;20058;-72
2023/10/01 01:32:42;;;;;;;11.82;2.92;;;;;;;-146.27;68.12;81817.75;5027454;28;20022;-72
2023/10/01 01:35:10;;;;;;;9.38;3.60;;;;;;;-146.27;68.41;81805.69;5019240;28;20047;-71
2023/10/01 01:37:47;;;;;;;7.68;2.58;;;;;;;-146.27;68.22;81781.59;5012655;28;20032;-72
2023/10/01 01:40:24;;;;;;;11.60;2.80;;;;;;;-146.27;68.33;81803.69;5018666;28;20114;-71
2023/10/01 01:42:56;;;;;;;9.68;2.90;;;;;;;-146.27;68.52;81787.63;5020245;28;20033;-71
2023/10/01 01:45:28;;;;;;;8.98;2.53;;;;;;;-146.27;68.44;81765.53;5025980;28;20033;-72
2023/10/01 01:47:54;;;;;;;9.02;2.63;;;;;;;-146.27;68.57;81813.72;5020391;28;20017;-72
2023/10/01 01:50:26;;;;;;;9.35;2.90;;;;;;;-146.27;68.60;81809.72;5027803;28;20206;-72
2023/10/01 01:52:56;;;;;;;15.60;3.65;;;;;;;-146.27;68.62;81813.72;5025259;28;20021;-72
2023/10/01 01:55:23;;;;;;;13.13;4.50;;;;;;;-146.27;68.66;81793.66;5017671;28;20080;-73
2023/10/01 01:58:55;;;;;;;16.55;3.22;;;;;;;-146.27;68.80;81805.69;5024079;28;20033;-72
2023/10/01 02:03:32;;;;;;;13.52;3.70;;;;;;;-146.27;68.82;81793.66;5019703;28;20056;-72
2023/10/01 02:05:58;;;;;;;15.70;3.35;;;;;;;-146.27;69.32;81789.63;5012434;28;20504;-72
2023/10/01 02:08:24;;;;;;;17.77;4.18;;;;;;;-146.27;69.27;81819.75;5023119;28;20044;-72
2023/10/01 02:10:55;;;;;;;12.48;3.85;;;;;;;-146.27;69.21;81803.69;5023308;28;20031;-72
2023/10/01 02:13:25;;;;;;;12.63;3.97;;;;;;;-146.27;70.02;81869.97;5015829;28;20512;-71
2023/10/01 02:15:51;;;;;;;15.77;3.50;;;;;;;-146.27;69.47;81795.66;5019426;28;20038;-71
2023/10/01 02:18:17;;;;;;;11.30;3.38;;;;;;;-146.27;69.41;81853.91;5010442;28;20390;-71
2023/10/01 02:20:52;;;;;;;12.82;3.83;;;;;;;-146.27;69.34;81765.53;5020818;28;20045;-71
2023/10/01 02:23:26;;;;;;;10.98;4.05;;;;;;;-146.27;69.79;81825.78;5015548;28;20025;-71
2023/10/01 02:25:53;;;;;;;9.38;3.60;;;;;;;-146.27;69.43;81787.63;5016135;28;20087;-71
2023/10/01 02:28:18;;;;;;;12.32;3.92;;;;;;;-146.27;69.93;81793.66;5010719;28;20061;-71
2023/10/01 02:30:44;;;;;;;14.73;4.35;;;;;;;-146.27;70.01;81797.66;5023322;28;20046;-71
2023/10/01 02:33:17;;;;;;;10.75;3.65;;;;;;;-146.27;69.69;81803.69;5022613;28;20057;-74
2023/10/01 02:35:58;;;;;;;17.17;4.65;;;;;;;-146.27;69.71;81785.59;5021012;28;20033;-71
2023/10/01 02:41:10;;;;;;;14.88;3.95;;;;;;;-146.27;70.04;81799.66;5016222;28;20568;-71
2023/10/01 02:43:41;;;;;;;10.98;4.07;;;;;;;-146.27;69.92;81781.59;5025308;28;20473;-71
2023/10/01 02:46:11;;;;;;;14.60;4.25;;;;;;;-146.27;69.86;81743.44;5028390;28;20021;-71
2023/10/01 02:48:41;;;;;;;12.35;3.92;;;;;;;-146.27;69.82;81773.56;5011160;28;20029;-71
2023/10/01 02:51:16;;;;;;;8.75;3.38;;;;;;;-146.27;70.01;81815.72;5022029;28;20064;-72
2023/10/01 02:53:42;;;;;;;11.10;3.30;;;;;;;-146.27;70.08;81785.59;5019635;28;20022;-72
2023/10/01 02:56:12;;;;;;;14.23;4.18;;;;;;;-146.27;69.94;81771.53;5028469;28;20081;-72
2023/10/01 02:58:44;;;;;;;12.40;3.70;;;;;;;-146.27;70.78;81849.88;5027201;28;20028;-71
2023/10/01 03:01:13;;;;;;;16.17;4.13;;;;;;;-146.27;70.90;81865.94;5019043;28;20049;-72
2023/10/01 03:03:40;;;;;;;13.57;4.57;;;;;;;-146.27;70.89;81827.78;5028138;28;20135;-72
2023/10/01 03:06:09;;;;;;;21.80;4.45;;;;;;;-146.27;70.73;81791.63;5025828;28;20033;-72
2023/10/01 03:11:16;;;;;;;14.57;4.15;;;;;;;-146.27;70.64;81779.59;5021306;28;20030;-72
2023/10/01 03:13:46;;;;;;;10.52;4.28;;;;;;;-146.27;70.56;81767.53;5018007;28;20049;-72
2023/10/01 03:19:03;;;;;;;12.93;4.57;;;;;;;-146.27;71.12;81825.78;5023365;28;20068;-72
2023/10/01 03:22:31;;;;;;;11.95;4.47;;;;;;;-146.27;71.04;81803.69;5018416;28;20052;-72
2023/10/01 03:24:25;;;;;;;13.18;4.53;;;;;;;-146.27;70.67;81769.53;5022731;28;20033;-72
2023/10/01 03:26:51;;;;;;;11.75;4.50;;;;;;;-146.27;71.59;81807.69;5022711;28;20108;-72
2023/10/01 03:29:21;;;;;;;18.95;4.78;;;;;;;-146.27;71.33;81789.63;5016512;28;20435;-73
2023/10/01 03:31:53;;;;;;;16.67;4.45;;;;;;;-146.27;72.19;81845.88;5019064;28;20115;-72
2023/10/01 03:34:28;;;;;;;13.73;4.30;;;;;;;-146.27;72.11;81835.81;5025744;28;20057;-71
2023/10/01 03:37:00;;;;;;;20.80;4.90;;;;;;;-146.27;71.87;81775.56;5015638;28;20468;-71
2023/10/01 03:39:26;;;;;;;14.02;4.90;;;;;;;-146.27;72.12;81811.72;5020647;28;20120;-71
2023/10/01 03:42:17;;;;;;;18.00;5.53;;;;;;;-146.27;71.31;81769.53;5026024;28;20034;-73
2023/10/01 03:45:18;;;;;;;18.75;5.30;;;;;;;-146.27;71.98;81777.56;5013153;28;20037;-73
2023/10/01 03:47:43;;;;;;;12.52;4.57;;;;;;;-146.27;71.88;81773.56;5016979;28;20369;-73
2023/10/01 03:50:09;;;;;;;16.65;4.70;;;;;;;-146.27;71.74;81763.50;5025112;28;20116;-73
2023/10/01 03:52:39;;;;;;;13.55;4.57;;;;;;;-146.27;71.94;81757.50;5030209;28;20029;-73
2023/10/01 03:55:25;;;;;;;16.63;4.65;;;;;;;-146.27;72.61;81829.78;5031366;28;20382;-73
2023/10/01 03:57:56;;;;;;;12.77;4.40;;;;;;;-146.27;72.85;81809.72;5018420;28;20876;-73
2023/10/01 04:03:05;;;;;;;13.45;3.90;;;;;;;-146.27;72.58;81775.56;5028844;28;20420;-72
2023/10/01 04:05:44;;;;;;;11.20;4.43;;;;;;;-146.27;72.44;81785.59;5013972;28;20022;-73
2023/10/01 04:08:11;;;;;;;12.93;4.25;;;;;;;-146.27;72.87;81813.72;5026729;28;20236;-72
2023/10/01 04:10:38;;;;;;;16.75;5.00;;;;;;;-146.27;73.11;81821.75;5024050;28;20029;-72
2023/10/01 04:13:13;;;;;;;15.40;4.88;;;;;;;-146.27;72.58;81773.56;5015787;28;20032;-72
2023/10/01 04:15:47;;;;;;;15.68;4.47;;;;;;;-146.27;72.95;81737.41;5018993;28;20222;-72
2023/10/01 04:20:47;;;;;;;16.70;5.00;;;;;;;-146.27;72.95;81769.53;5028539;28;20054;-73
2023/10/01 04:23:29;;;;;;;15.40;4.80;;;;;;;-146.27;72.79;81763.50;5021525;28;20030;-72
2023/10/01 04:25:55;;;;;;;12.50;4.78;;;;;;;-146.27;73.45;81799.66;5016975;28;20038;-72
2023/10/01 04:28:20;;;;;;;14.57;4.50;;;;;;;-146.27;72.56;81755.47;5017563;28;20028;-73
2023/10/01 04:30:51;;;;;;;19.95;5.07;;;;;;;-146.27;73.01;81787.63;5013764;28;20026;-72
2023/10/01 04:33:17;;;;;;;11.15;4.57;;;;;;;-146.27;72.59;81725.34;5012480;28;20026;-72
2023/10/01 04:35:56;;;;;;;9.68;4.05;;;;;;;-146.27;73.00;81793.66;5025379;28;20033;-72
2023/10/01 04:38:22;;;;;;;14.25;4.60;;;;;;;-146.27;73.40;81823.78;5028200;28;20021;-72
2023/10/01 04:40:49;;;;;;;14.77;4.72;;;;;;;-146.27;73.00;81719.31;5028616;28;20033;-72
2023/10/01 04:43:20;;;;;;;13.70;4.10;;;;;;;-146.27;72.44;81729.38;5021537;28;20022;-72
2023/10/01 04:45:46;;;;;;;15.00;5.05;;;;;;;-146.27;72.97;81761.50;5021551;28;20044;-71
2023/10/01 04:48:17;;;;;;;15.10;4.78;;;;;;;-146.27;73.02;81755.47;5030678;28;20029;-72
2023/10/01 04:50:45;;;;;;;11.25;4.55;;;;;;;-146.27;72.61;81713.31;5026778;28;20385;-72
2023/10/01 04:53:13;;;;;;;12.70;4.15;;;;;;;-146.27;72.88;81777.56;5021649;28;20025;-72
2023/10/01 04:55:42;;;;;;;16.10;4.63;;;;;;;-146.27;72.87;81737.41;5024377;28;20018;-74
2023/10/01 04:58:08;;;;;;;19.17;5.05;;;;;;;-146.27;72.57;81673.13;5025429;28;20044;-74
2023/10/01 05:00:34;;;;;;;15.07;5.40;;;;;;;-146.27;73.00;81739.41;5011931;28;20096;-71
2023/10/01 05:03:03;;;;;;;16.50;5.30;;;;;;;-146.27;73.21;81765.53;5014054;28;20168;-71
2023/10/01 05:05:28;;;;;;;12.18;4.57;;;;;;;-146.27;73.01;81777.56;5024963;28;20537;-72
2023/10/01 05:07:57;;;;;;;15.35;5.15;;;;;;;-146.27;73.11;81721.34;5020011;28;20026;-74
2023/10/01 05:10:26;;;;;;;13.45;5.57;;;;;;;-146.27;73.39;81773.56;5022416;28;20441;-72
2023/10/01 05:12:58;;;;;;;16.33;5.00;;;;;;;-146.27;72.99;81729.38;5028927;28;20049;-72
2023/10/01 05:15:27;;;;;;;21.83;4.80;;;;;;;-146.27;73.15;81757.50;5029719;28;20037;-72
2023/10/01 05:17:55;;;;;;;16.50;4.78;;;;;;;-146.27;72.98;81729.38;5022732;28;20434;-72
2023/10/01 05:20:21;;;;;;;12.15;4.85;;;;;;;-146.27;72.87;81777.56;5023613;28;20044;-73
2023/10/01 05:22:46;;;;;;;21.75;5.38;;;;;;;-146.27;73.74;81813.72;5019107;28;20107;-73
2023/10/01 05:25:18;;;;;;;18.23;6.35;;;;;;;-146.27;73.59;81781.59;5019980;28;20056;-69
2023/10/01 05:27:44;;;;;;;17.42;5.28;;;;;;;-146.27;73.48;81757.50;5020396;28;20076;-69
2023/10/01 05:30:34;;;;;;;15.35;4.57;;;;;;;-146.27;73.18;81733.38;5028189;28;20033;-68
2023/10/01 05:32:55;;;;;;;15.95;5.07;;;;;;;-146.27;73.05;81739.41;5021753;28;20037;-69
2023/10/01 05:35:22;;;;;;;17.27;6.55;;;;;;;-146.27;73.59;81769.53;5028173;28;20021;-70
2023/10/01 05:37:49;;;;;;;15.75;4.85;;;;;;;-146.27;73.07;81705.28;5020566;28;20083;-68
2023/10/01 05:40:17;;;;;;;19.25;5.35;;;;;;;-146.27;73.69;81783.59;5026646;28;20032;-68
2023/10/01 05:42:47;;;;;;;12.75;5.00;;;;;;;-146.27;73.56;81737.41;5023201;28;20040;-69
2023/10/01 05:45:18;;;;;;;13.88;5.18;;;;;;;-146.27;73.51;81729.38;5023783;28;20088;-67
2023/10/01 05:47:51;;;;;;;15.13;4.85;;;;;;;-146.27;73.95;81789.63;5016976;28;20493;-69
2023/10/01 05:50:18;;;;;;;16.92;5.57;;;;;;;-146.27;74.14;81795.66;5021338;28;20061;-69
2023/10/01 05:52:45;;;;;;;18.23;6.18;;;;;;;-146.27;73.95;81787.63;5029163;28;20053;-68
2023/10/01 05:55:15;;;;;;;14.23;5.65;;;;;;;-146.27;74.60;81837.81;5029829;28;20452;-69
2023/10/01 05:57:42;;;;;;;14.80;5.40;;;;;;;-146.27;73.89;81785.59;5018291;28;20018;-70
2023/10/01 06:00:17;;;;;;;16.67;5.63;;;;;;;-146.27;73.35;81709.28;5026197;28;20187;-68
2023/10/01 06:03:00;;;;;;;17.88;5.60;;;;;;;-146.27;73.97;81753.47;5014061;28;20041;-68
2023/10/01 06:05:32;;;;;;;12.43;5.10;;;;;;;-146.27;74.71;81845.88;5021198;28;20029;-69
2023/10/01 06:07:58;;;;;;;15.40;5.20;;;;;;;-146.27;74.49;81857.91;5014901;28;20025;-69
2023/10/01 06:10:27;;;;;;;16.30;5.68;;;;;;;-146.27;73.86;81789.63;5022894;28;20036;-68
2023/10/01 06:12:56;;;;;;;14.90;5.53;;;;;;;-146.27;73.74;81737.41;5023895;28;20112;-70
2023/10/01 06:15:25;;;;;;;15.95;5.53;;;;;;;-146.27;73.21;81729.38;5016538;28;20128;-67
2023/10/01 06:17:50;;;;;;;16.75;5.80;;;;;;;-146.27;74.04;81779.59;5020287;28;20037;-69
2023/10/01 06:20:26;;;;;;;23.60;6.20;;;;;;;-146.27;74.25;81799.66;5025474;28;21205;-69
2023/10/01 06:22:55;;;;;;;16.42;5.45;;;;;;;-146.27;73.94;81735.41;5025922;28;20022;-69
2023/10/01 06:25:37;;;;;;;13.55;5.13;;;;;;;-146.27;74.23;81809.72;5021577;28;20455;-70
2023/10/01 06:28:08;;;;;;;14.93;6.13;;;;;;;-146.27;74.06;81771.53;5027159;28;20438;-70
2023/10/01 06:30:39;;;;;;;15.70;5.93;;;;;;;-146.27;75.19;81799.66;5020765;28;20370;-72
2023/10/01 06:33:08;;;;;;;14.20;5.65;;;;;;;-146.27;74.25;81805.69;5024445;28;20030;-69
2023/10/01 06:35:35;;;;;;;16.15;5.82;;;;;;;-146.27;74.98;81841.84;5022480;28;20036;-70
2023/10/01 06:38:01;;;;;;;15.48;6.43;;;;;;;-146.27;73.88;81725.34;5018633;28;20116;-70
2023/10/01 06:40:29;;;;;;;14.60;5.90;;;;;;;-146.27;74.25;81767.53;5025384;28;20041;-70
2023/10/01 06:42:56;;;;;;;17.42;6.07;;;;;;;-146.27;74.34;81763.50;5009152;28;20115;-70
2023/10/01 06:45:38;;;;;;;13.35;5.22;;;;;;;-146.27;74.93;81805.69;5011480;28;20478;-70
2023/10/01 06:48:14;;;;;;;18.58;6.15;;;;;;;-146.27;74.75;81801.69;5011221;28;20107;-69
2023/10/01 06:50:43;;;;;;;46.08;8.50;;;;;;;-146.27;74.97;81803.69;5017608;28;20029;-70
2023/10/01 06:53:09;;;;;;;21.02;5.93;;;;;;;-146.27;74.66;81777.56;5025010;28;20390;-68
2023/10/01 06:55:36;;;;;;;19.67;6.22;;;;;;;-146.27;74.30;81749.47;5023810;28;20033;-69
2023/10/01 06:58:07;;;;;;;15.13;6.57;;;;;;;-146.27;74.74;81769.53;5028340;28;20029;-70
2023/10/01 07:00:36;;;;;;;14.40;5.53;;;;;;;-146.27;74.29;81757.50;5032899;28;20489;-71
2023/10/01 07:03:21;;;;;;;15.82;5.65;;;;;;;-146.27;74.85;81797.66;5021220;28;20030;-70
2023/10/01 07:05:55;;;;;;;16.65;6.18;;;;;;;-146.27;74.81;81777.56;5029328;28;20118;-70
2023/10/01 07:08:37;;;;;;;18.50;6.30;;;;;;;-146.27;74.81;81795.66;5019023;28;20026;-69
2023/10/01 07:11:11;;;;;;;13.07;5.93;;;;;;;-146.27;74.19;81729.38;5024053;28;20084;-70
2023/10/01 07:13:40;;;;;;;16.38;6.75;;;;;;;-146.27;74.20;81705.28;5013725;28;20046;-70
2023/10/01 07:16:07;;;;;;;17.83;6.63;;;;;;;-146.27;74.07;81703.25;5016984;28;20064;-70
2023/10/01 07:18:37;;;;;;;21.05;8.38;;;;;;;-146.27;74.56;81709.28;5015172;28;20022;-70
2023/10/01 07:21:09;;;;;;;19.02;6.88;;;;;;;-146.27;74.26;81713.31;5031909;28;20099;-70
2023/10/01 07:23:35;;;;;;;20.15;7.25;;;;;;;-146.27;75.22;81779.59;5033180;28;20497;-70
2023/10/01 07:26:01;;;;;;;17.58;6.38;;;;;;;-146.27;74.43;81735.41;5025193;28;20037;-69
2023/10/01 07:28:26;;;;;;;18.10;7.25;;;;;;;-146.27;74.58;81725.34;5031443;28;20405;-70
2023/10/01 07:30:56;;;;;;;23.13;6.88;;;;;;;-146.27;74.66;81689.19;5017554;28;20450;-69
2023/10/01 07:33:22;;;;;;;19.98;6.80;;;;;;;-146.27;74.27;81719.31;5028495;28;20041;-71
2023/10/01 07:36:00;;;;;;;19.33;7.10;;;;;;;-146.27;73.72;81651.03;5032741;28;20049;-71
2023/10/01 07:38:31;;;;;;;17.10;6.40;;;;;;;-146.27;73.80;81669.13;5027007;28;20037;-70
2023/10/01 07:41:07;;;;;;;19.40;6.75;;;;;;;-146.27;73.35;81602.84;5020544;28;20080;-71
2023/10/01 07:43:33;;;;;;;19.48;6.95;;;;;;;-146.27;73.70;81630.97;5028850;28;20412;-71
2023/10/01 07:46:01;;;;;;;19.40;7.13;;;;;;;-146.27;73.23;81622.91;5026067;28;20155;-71
2023/10/01 07:48:28;;;;;;;14.73;5.75;;;;;;;-146.27;73.06;81580.75;5024678;28;20038;-70
2023/10/01 07:51:02;;;;;;;18.08;7.50;;;;;;;-146.27;72.67;81532.53;5028124;28;20082;-71
2023/10/01 07:53:33;;;;;;;17.38;6.35;;;;;;;-146.27;72.82;81576.72;5020939;28;20044;-67
2023/10/01 07:56:02;;;;;;;13.52;6.72;;;;;;;-146.27;73.01;81530.53;5027825;28;20057;-71
2023/10/01 07:58:47;;;;;;;14.65;6.65;;;;;;;-146.27;73.29;81598.81;5021941;28;20493;-72
2023/10/01 08:04:05;;;;;;;16.67;6.20;;;;;;;-146.27;72.21;81486.34;5013280;28;20041;-72
2023/10/01 08:06:36;;;;;;;19.77;6.60;;;;;;;-146.27;72.14;81484.34;5015736;28;20484;-72
2023/10/01 08:09:11;;;;;;;17.50;6.22;;;;;;;-146.27;71.89;81460.25;5024215;28;20034;-72
2023/10/01 08:14:20;;;;;;;20.48;8.15;;;;;;;-146.27;71.45;81464.25;5023982;28;20115;-73
2023/10/01 08:16:51;;;;;;;16.25;6.78;;;;;;;-146.27;72.14;81458.22;5032621;28;20034;-72
2023/10/01 08:19:20;;;;;;;17.15;6.32;;;;;;;-146.27;72.77;81464.25;5025757;28;20033;-72
2023/10/01 08:21:54;;;;;;;18.38;7.22;;;;;;;-146.27;72.82;81534.56;5020882;28;20034;-72
2023/10/01 08:24:20;;;;;;;11.50;6.07;;;;;;;-146.27;73.40;81564.69;5020772;28;20036;-73
2023/10/01 08:27:12;;;;;;;14.95;6.03;;;;;;;-146.27;73.45;81592.78;5032448;28;20406;-72
2023/10/01 08:32:23;;;;;;;15.38;5.97;;;;;;;-146.27;72.70;81484.34;5013647;28;20041;-67
2023/10/01 08:35:06;;;;;;;17.00;6.90;;;;;;;-146.27;72.71;81472.28;5025258;28;20405;-68
2023/10/01 08:37:32;;;;;;;15.43;6.18;;;;;;;-146.27;72.16;81470.28;5014736;28;20143;-71
2023/10/01 08:39:58;;;;;;;17.98;6.32;;;;;;;-146.27;72.81;81452.22;5012280;28;20151;-71
2023/10/01 08:42:28;;;;;;;15.88;6.18;;;;;;;-146.27;72.21;81448.19;5016924;28;20096;-69
2023/10/01 08:45:02;;;;;;;13.82;6.38;;;;;;;-146.27;71.38;81303.59;5016601;28;20053;-70
2023/10/01 08:47:31;;;;;;;14.90;6.70;;;;;;;-146.27;72.05;81383.94;5012995;28;20032;-69
2023/10/01 08:53:01;;;;;;;15.40;6.68;;;;;;;-146.27;70.92;81283.50;5012323;28;20565;-68
2023/10/01 09:00:49;;;;;;;17.85;6.28;;;;;;;-146.27;69.76;81130.88;5028590;28;20029;-68
2023/10/01 09:03:26;;;;;;;15.90;5.97;;;;;;;-146.27;68.97;81022.44;5030647;28;20513;-69
2023/10/01 09:06:06;;;;;;;17.27;6.28;;;;;;;-146.27;69.00;81052.56;5015798;28;20025;-68
2023/10/01 09:08:32;;;;;;;18.80;6.05;;;;;;;-146.27;68.58;81012.41;5012406;28;20073;-68
2023/10/01 09:11:12;;;;;;;15.98;6.10;;;;;;;-146.27;68.55;81054.56;5022532;28;20107;-69
2023/10/01 09:16:42;;;;;;;18.83;5.68;;;;;;;-146.27;67.64;80910.00;5016057;28;20148;-69
2023/10/01 09:22:22;;;;;;;14.50;6.05;;;;;;;-146.27;67.38;80793.53;5024385;28;20118;-68
2023/10/01 09:25:01;;;;;;;17.38;6.78;;;;;;;-146.27;65.39;80781.47;5025056;28;20049;-68
2023/10/01 09:27:30;;;;;;;15.57;6.30;;;;;;;-146.27;65.25;80683.09;5018439;28;20040;-71
2023/10/01 09:30:26;;;;;;;19.35;6.20;;;;;;;-146.27;64.27;80809.59;5028067;28;20115;-69
2023/10/01 09:33:04;;;;;;;13.00;5.55;;;;;;;-146.27;64.59;80717.22;5010628;28;20517;-69
2023/10/01 09:36:04;;;;;;;14.77;6.32;;;;;;;-146.27;63.98;80616.84;5018935;28;20056;-69
2023/10/01 09:38:30;;;;;;;14.15;5.85;;;;;;;-146.27;63.69;80494.34;5011048;28;20030;-68
2023/10/01 09:40:57;;;;;;;16.05;6.18;;;;;;;-146.27;63.05;80532.50;5022149;28;20420;-70
2023/10/01 09:43:29;;;;;;;16.60;6.40;;;;;;;-146.27;62.86;80578.69;5019020;28;20021;-68
2023/10/01 09:45:57;;;;;;;18.13;6.68;;;;;;;-146.27;62.75;80452.19;5015110;28;20079;-68
2023/10/01 09:48:30;;;;;;;17.50;6.78;;;;;;;-146.27;62.90;80456.19;5023822;28;20031;-68
2023/10/01 09:51:08;;;;;;;15.73;6.13;;;;;;;-146.27;63.30;80542.53;5026453;28;20033;-67
2023/10/01 09:53:55;;;;;;;20.50;6.38;;;;;;;-146.27;62.59;80436.13;5022302;28;20425;-68
2023/10/01 09:59:11;;;;;;;14.82;5.75;;;;;;;-146.27;62.56;80311.63;5026983;28;20050;-72
2023/10/01 10:01:38;;;;;;;17.80;6.68;;;;;;;-146.27;61.00;80440.13;5016719;28;20109;-72
2023/10/01 10:04:06;;;;;;;21.42;6.60;;;;;;;-146.27;60.59;80255.41;5020293;28;20040;-73
2023/10/01 10:06:32;;;;;;;16.60;6.25;;;;;;;-146.27;60.52;80319.66;5025859;28;20389;-73
2023/10/01 10:09:03;;;;;;;19.63;6.30;;;;;;;-146.27;60.08;80227.31;5014633;28;20026;-73
2023/10/01 10:11:31;;;;;;;14.45;5.90;;;;;;;-146.27;60.67;80159.06;5011607;28;20034;-73
2023/10/01 10:14:00;;;;;;;14.88;6.30;;;;;;;-146.27;60.00;80161.06;5020025;28;20445;-75
2023/10/01 10:16:35;;;;;;;15.75;5.93;;;;;;;-146.27;59.52;80034.56;5014802;28;20044;-73
2023/10/01 10:19:47;;;;;;;14.90;5.47;;;;;;;-146.27;58.78;79884.00;5020378;28;20109;-74
2023/10/01 10:24:28;;;;;;;14.25;6.00;;;;;;;-146.27;57.67;79861.94;5012586;28;20048;-72
2023/10/01 10:26:57;;;;;;;13.32;5.85;;;;;;;-146.27;56.75;79809.72;5021618;28;20249;-72
2023/10/01 10:29:46;;;;;;;12.77;6.03;;;;;;;-146.27;57.42;79570.84;5028973;28;20029;-73
2023/10/01 10:32:14;;;;;;;14.85;5.75;;;;;;;-146.27;55.56;79777.59;5028645;28;20064;-73
2023/10/01 10:35:06;;;;;;;12.50;6.18;;;;;;;-146.27;55.08;79791.66;5027634;28;20381;-73
2023/10/01 10:37:37;;;;;;;16.77;6.25;;;;;;;-146.27;54.50;79641.09;5007891;28;20045;-73
2023/10/01 10:40:12;;;;;;;14.35;5.80;;;;;;;-146.27;55.41;79906.09;5008071;28;20543;-74
2023/10/01 10:43:04;;;;;;;14.40;5.70;;;;;;;-146.27;54.88;79827.78;5016598;28;20026;-73
2023/10/01 10:46:04;;;;;;;14.77;6.22;;;;;;;-146.27;55.14;79663.19;5023455;28;20034;-73
2023/10/01 10:48:24;;;;;;;13.73;6.93;;;;;;;-146.27;54.21;79753.53;5014816;28;20029;-73
2023/10/01 10:50:56;;;;;;;15.10;6.18;;;;;;;-146.27;53.29;79488.53;5015173;28;20034;-74
2023/10/01 10:53:24;;;;;;;18.80;7.17;;;;;;;-146.27;52.97;79729.44;5025232;28;20049;-73
2023/10/01 10:56:08;;;;;;;14.98;5.93;;;;;;;-146.27;53.57;79639.09;5023534;28;20061;-75
2023/10/01 10:58:53;;;;;;;13.30;5.90;;;;;;;-146.27;53.98;79472.47;5013270;28;20076;-73
2023/10/01 11:01:19;;;;;;;16.30;5.45;;;;;;;-146.27;53.85;79629.06;5017227;28;20026;-74
2023/10/01 11:03:58;;;;;;;18.92;6.63;;;;;;;-146.27;54.47;79625.03;5017172;28;20030;-73
2023/10/01 11:06:42;;;;;;;17.95;6.97;;;;;;;-146.27;52.34;79424.31;5016990;28;20064;-73
2023/10/01 11:09:25;;;;;;;19.88;6.95;;;;;;;-146.27;53.11;79488.53;5023845;28;20112;-73
2023/10/01 11:12:21;;;;;;;15.43;6.55;;;;;;;-146.27;52.45;79291.81;5016846;28;20374;-73
2023/10/01 11:15:19;;;;;;;18.63;5.85;;;;;;;-146.27;51.59;79229.59;5018359;28;20456;-68
2023/10/01 11:17:47;;;;;;;14.70;6.03;;;;;;;-146.27;49.59;78878.34;5024169;28;20465;-71
2023/10/01 11:20:22;;;;;;;18.42;6.20;;;;;;;-146.27;48.78;78733.84;5012601;28;20497;-68
2023/10/01 11:22:54;;;;;;;21.77;7.00;;;;;;;-146.27;47.88;78623.47;5023504;28;20025;-68
2023/10/01 11:25:23;;;;;;;15.23;6.20;;;;;;;-146.27;47.42;78790.03;5021403;28;20473;-69
2023/10/01 11:28:08;;;;;;;18.08;6.40;;;;;;;-146.27;48.88;78755.91;5023657;28;20033;-71
2023/10/01 11:30:42;;;;;;;15.00;5.50;;;;;;;-146.27;46.44;78342.50;5028142;28;20078;-68
2023/10/01 11:35:59;;;;;;;14.07;5.90;;;;;;;-146.27;46.35;78665.59;5014220;28;20524;-69
2023/10/01 11:38:27;;;;;;;14.18;6.05;;;;;;;-146.27;44.87;78420.75;5012843;28;20037;-67
2023/10/01 11:41:07;;;;;;;14.80;6.20;;;;;;;-146.27;45.62;78266.25;5019472;28;20029;-67
2023/10/01 11:43:41;;;;;;;15.48;5.78;;;;;;;-146.27;45.11;78489.00;5030318;28;20083;-68
2023/10/01 11:46:20;;;;;;;15.13;6.35;;;;;;;-146.27;44.67;77999.34;5019851;28;20029;-66
2023/10/01 11:49:02;;;;;;;13.82;6.20;;;;;;;-146.27;44.65;78280.28;5032923;28;20026;-67
2023/10/01 11:52:25;;;;;;;17.98;6.10;;;;;;;-146.27;44.37;78300.34;5016396;28;20037;-67
2023/10/01 11:54:43;;;;;;;13.73;6.35;;;;;;;-146.27;44.40;78583.31;5010639;28;20040;-68
2023/10/01 11:57:31;;;;;;;16.23;6.50;;;;;;;-146.27;44.35;78254.19;5027230;28;20091;-67
2023/10/01 11:59:58;;;;;;;15.57;6.32;;;;;;;-146.27;44.46;78509.06;5022845;28;20033;-67
2023/10/01 12:02:33;;;;;;;16.25;6.00;;;;;;;-146.27;44.71;78559.25;5032572;28;20109;-67
2023/10/01 12:05:02;;;;;;;18.85;6.45;;;;;;;-146.27;44.65;78631.50;5028360;28;20480;-68
2023/10/01 12:07:39;;;;;;;17.48;6.75;;;;;;;-146.27;44.00;78340.50;5027654;28;20025;-67
2023/10/01 12:10:07;;;;;;;16.67;6.68;;;;;;;-146.27;43.89;78123.78;5034301;28;20432;-67
2023/10/01 12:12:39;;;;;;;13.93;6.43;;;;;;;-146.27;43.46;77774.63;5024930;28;20092;-65
2023/10/01 12:17:51;;;;;;;16.80;6.55;;;;;;;-146.27;42.88;78113.72;5019065;28;20028;-67
2023/10/01 12:20:23;;;;;;;18.67;6.93;;;;;;;-146.27;44.57;78527.13;5009132;28;20048;-67